sensor_id;sensor_type;location;lat;lon;timestamp;P1;durP1;ratioP1;P2;durP2;ratioP2
43150;SDS011;28755;51.478;5.702;2023-07-31T00:01:14;32.60;;;9.38;;
43150;SDS011;28755;51.478;5.702;2023-07-31T00:03:39;30.15;;;8.65;;
43150;SDS011;28755;51.478;5.702;2023-07-31T00:06:05;31.45;;;8.93;;
43150;SDS011;28755;51.478;5.702;2023-07-31T00:08:30;25.80;;;8.10;;
43150;SDS011;28755;51.478;5.702;2023-07-31T00:10:56;27.25;;;8.25;;
43150;SDS011;28755;51.478;5.702;2023-07-31T00:13:22;34.95;;;8.27;;
43150;SDS011;28755;51.478;5.702;2023-07-31T00:15:47;27.27;;;7.72;;
43150;SDS011;28755;51.478;5.702;2023-07-31T00:18:13;26.05;;;8.48;;
43150;SDS011;28755;51.478;5.702;2023-07-31T00:20:39;26.25;;;8.38;;
43150;SDS011;28755;51.478;5.702;2023-07-31T00:23:04;19.50;;;6.75;;
43150;SDS011;28755;51.478;5.702;2023-07-31T00:25:30;23.33;;;7.28;;
43150;SDS011;28755;51.478;5.702;2023-07-31T00:27:55;21.17;;;7.45;;
43150;SDS011;28755;51.478;5.702;2023-07-31T00:30:21;22.25;;;7.45;;
43150;SDS011;28755;51.478;5.702;2023-07-31T00:32:47;24.88;;;6.55;;
43150;SDS011;28755;51.478;5.702;2023-07-31T00:35:12;23.60;;;7.60;;
43150;SDS011;28755;51.478;5.702;2023-07-31T00:37:38;22.85;;;6.93;;
43150;SDS011;28755;51.478;5.702;2023-07-31T00:40:04;21.55;;;7.35;;
43150;SDS011;28755;51.478;5.702;2023-07-31T00:42:30;22.42;;;6.72;;
43150;SDS011;28755;51.478;5.702;2023-07-31T00:44:55;24.88;;;7.30;;
43150;SDS011;28755;51.478;5.702;2023-07-31T00:47:21;26.30;;;7.05;;
43150;SDS011;28755;51.478;5.702;2023-07-31T00:49:46;24.50;;;6.90;;
43150;SDS011;28755;51.478;5.702;2023-07-31T00:52:13;22.17;;;6.18;;
43150;SDS011;28755;51.478;5.702;2023-07-31T00:54:38;19.33;;;6.18;;
43150;SDS011;28755;51.478;5.702;2023-07-31T00:57:04;20.90;;;6.68;;
43150;SDS011;28755;51.478;5.702;2023-07-31T00:59:30;23.45;;;7.40;;
43150;SDS011;28755;51.478;5.702;2023-07-31T01:01:55;21.25;;;6.60;;
43150;SDS011;28755;51.478;5.702;2023-07-31T01:04:21;19.95;;;6.72;;
43150;SDS011;28755;51.478;5.702;2023-07-31T01:06:56;16.05;;;5.35;;
43150;SDS011;28755;51.478;5.702;2023-07-31T01:09:52;24.20;;;6.28;;
43150;SDS011;28755;51.478;5.702;2023-07-31T01:12:27;18.23;;;6.13;;
43150;SDS011;28755;51.478;5.702;2023-07-31T01:17:26;17.75;;;5.90;;
43150;SDS011;28755;51.478;5.702;2023-07-31T01:19:51;17.98;;;6.00;;
43150;SDS011;28755;51.478;5.702;2023-07-31T01:27:41;15.32;;;5.78;;
43150;SDS011;28755;51.478;5.702;2023-07-31T01:30:14;22.15;;;5.72;;
43150;SDS011;28755;51.478;5.702;2023-07-31T01:32:42;20.10;;;6.25;;
43150;SDS011;28755;51.478;5.702;2023-07-31T01:35:11;19.88;;;6.10;;
43150;SDS011;28755;51.478;5.702;2023-07-31T01:37:37;19.17;;;5.47;;
43150;SDS011;28755;51.478;5.702;2023-07-31T01:40:02;18.40;;;5.85;;
43150;SDS011;28755;51.478;5.702;2023-07-31T01:42:29;16.83;;;5.68;;
43150;SDS011;28755;51.478;5.702;2023-07-31T01:44:54;20.70;;;6.05;;
43150;SDS011;28755;51.478;5.702;2023-07-31T01:47:20;20.90;;;6.35;;
43150;SDS011;28755;51.478;5.702;2023-07-31T01:49:45;21.27;;;5.90;;
43150;SDS011;28755;51.478;5.702;2023-07-31T01:52:11;21.30;;;6.40;;
43150;SDS011;28755;51.478;5.702;2023-07-31T01:54:36;20.88;;;5.90;;
43150;SDS011;28755;51.478;5.702;2023-07-31T01:57:02;26.05;;;6.72;;
43150;SDS011;28755;51.478;5.702;2023-07-31T01:59:28;18.17;;;6.72;;
43150;SDS011;28755;51.478;5.702;2023-07-31T02:01:54;18.63;;;6.15;;
43150;SDS011;28755;51.478;5.702;2023-07-31T02:04:19;20.08;;;6.32;;
43150;SDS011;28755;51.478;5.702;2023-07-31T02:06:45;14.50;;;6.15;;
43150;SDS011;28755;51.478;5.702;2023-07-31T02:09:10;17.48;;;5.93;;
43150;SDS011;28755;51.478;5.702;2023-07-31T02:11:36;18.70;;;5.93;;
43150;SDS011;28755;51.478;5.702;2023-07-31T02:14:01;22.98;;;6.78;;
43150;SDS011;28755;51.478;5.702;2023-07-31T02:16:27;18.73;;;6.60;;
43150;SDS011;28755;51.478;5.702;2023-07-31T02:18:53;18.77;;;6.43;;
43150;SDS011;28755;51.478;5.702;2023-07-31T02:21:18;23.75;;;6.28;;
43150;SDS011;28755;51.478;5.702;2023-07-31T02:23:44;17.95;;;6.15;;
43150;SDS011;28755;51.478;5.702;2023-07-31T02:26:09;21.17;;;6.80;;
43150;SDS011;28755;51.478;5.702;2023-07-31T02:28:35;22.42;;;6.30;;
43150;SDS011;28755;51.478;5.702;2023-07-31T02:31:00;18.60;;;6.30;;
43150;SDS011;28755;51.478;5.702;2023-07-31T02:33:26;21.15;;;7.22;;
43150;SDS011;28755;51.478;5.702;2023-07-31T02:35:51;25.17;;;7.18;;
43150;SDS011;28755;51.478;5.702;2023-07-31T02:38:17;19.65;;;6.43;;
43150;SDS011;28755;51.478;5.702;2023-07-31T02:40:42;19.83;;;6.80;;
43150;SDS011;28755;51.478;5.702;2023-07-31T02:43:08;21.02;;;7.35;;
43150;SDS011;28755;51.478;5.702;2023-07-31T02:45:34;24.52;;;6.55;;
43150;SDS011;28755;51.478;5.702;2023-07-31T02:47:59;29.42;;;6.93;;
43150;SDS011;28755;51.478;5.702;2023-07-31T02:50:25;21.50;;;6.78;;
43150;SDS011;28755;51.478;5.702;2023-07-31T02:52:52;19.85;;;6.97;;
43150;SDS011;28755;51.478;5.702;2023-07-31T02:55:18;18.77;;;6.55;;
43150;SDS011;28755;51.478;5.702;2023-07-31T02:57:43;22.40;;;6.82;;
43150;SDS011;28755;51.478;5.702;2023-07-31T03:00:09;20.35;;;6.38;;
43150;SDS011;28755;51.478;5.702;2023-07-31T03:02:35;19.52;;;6.35;;
43150;SDS011;28755;51.478;5.702;2023-07-31T03:05:00;21.02;;;5.80;;
43150;SDS011;28755;51.478;5.702;2023-07-31T03:07:26;23.70;;;6.72;;
43150;SDS011;28755;51.478;5.702;2023-07-31T03:09:51;22.00;;;6.13;;
43150;SDS011;28755;51.478;5.702;2023-07-31T03:12:17;15.15;;;6.00;;
43150;SDS011;28755;51.478;5.702;2023-07-31T03:14:42;25.05;;;6.32;;
43150;SDS011;28755;51.478;5.702;2023-07-31T03:17:08;19.25;;;6.38;;
43150;SDS011;28755;51.478;5.702;2023-07-31T03:19:33;21.85;;;6.85;;
43150;SDS011;28755;51.478;5.702;2023-07-31T03:21:59;24.00;;;5.88;;
43150;SDS011;28755;51.478;5.702;2023-07-31T03:24:25;17.80;;;6.47;;
43150;SDS011;28755;51.478;5.702;2023-07-31T03:26:51;21.55;;;6.35;;
43150;SDS011;28755;51.478;5.702;2023-07-31T03:29:16;24.45;;;6.82;;
43150;SDS011;28755;51.478;5.702;2023-07-31T03:31:42;23.25;;;6.20;;
43150;SDS011;28755;51.478;5.702;2023-07-31T03:34:07;19.02;;;6.13;;
43150;SDS011;28755;51.478;5.702;2023-07-31T03:36:33;19.95;;;5.80;;
43150;SDS011;28755;51.478;5.702;2023-07-31T03:38:59;21.45;;;6.47;;
43150;SDS011;28755;51.478;5.702;2023-07-31T03:41:24;20.25;;;6.53;;
43150;SDS011;28755;51.478;5.702;2023-07-31T03:43:50;21.13;;;6.50;;
43150;SDS011;28755;51.478;5.702;2023-07-31T03:46:23;20.67;;;6.68;;
43150;SDS011;28755;51.478;5.702;2023-07-31T03:48:49;23.88;;;6.38;;
43150;SDS011;28755;51.478;5.702;2023-07-31T03:51:15;20.83;;;5.70;;
43150;SDS011;28755;51.478;5.702;2023-07-31T03:53:40;19.23;;;6.13;;
43150;SDS011;28755;51.478;5.702;2023-07-31T03:56:06;17.52;;;6.28;;
43150;SDS011;28755;51.478;5.702;2023-07-31T03:58:31;24.58;;;6.45;;
43150;SDS011;28755;51.478;5.702;2023-07-31T04:00:57;18.15;;;5.90;;
43150;SDS011;28755;51.478;5.702;2023-07-31T04:03:22;19.40;;;5.90;;
43150;SDS011;28755;51.478;5.702;2023-07-31T04:05:48;22.58;;;6.00;;
43150;SDS011;28755;51.478;5.702;2023-07-31T04:08:13;20.73;;;6.07;;
43150;SDS011;28755;51.478;5.702;2023-07-31T04:10:39;20.17;;;6.63;;
43150;SDS011;28755;51.478;5.702;2023-07-31T04:13:04;18.73;;;6.63;;
43150;SDS011;28755;51.478;5.702;2023-07-31T04:15:30;20.15;;;5.78;;
43150;SDS011;28755;51.478;5.702;2023-07-31T04:17:55;19.60;;;6.53;;
43150;SDS011;28755;51.478;5.702;2023-07-31T04:20:21;22.35;;;6.40;;
43150;SDS011;28755;51.478;5.702;2023-07-31T04:22:47;21.13;;;6.07;;
43150;SDS011;28755;51.478;5.702;2023-07-31T04:25:13;25.83;;;6.60;;
43150;SDS011;28755;51.478;5.702;2023-07-31T04:27:39;22.38;;;5.72;;
43150;SDS011;28755;51.478;5.702;2023-07-31T04:30:05;20.80;;;5.90;;
43150;SDS011;28755;51.478;5.702;2023-07-31T04:32:31;16.92;;;5.95;;
43150;SDS011;28755;51.478;5.702;2023-07-31T04:34:56;22.00;;;6.65;;
43150;SDS011;28755;51.478;5.702;2023-07-31T04:37:22;16.80;;;6.38;;
43150;SDS011;28755;51.478;5.702;2023-07-31T04:39:47;22.23;;;6.00;;
43150;SDS011;28755;51.478;5.702;2023-07-31T04:42:13;22.60;;;6.15;;
43150;SDS011;28755;51.478;5.702;2023-07-31T04:44:38;17.63;;;6.00;;
43150;SDS011;28755;51.478;5.702;2023-07-31T04:47:04;18.60;;;5.60;;
43150;SDS011;28755;51.478;5.702;2023-07-31T04:49:30;19.13;;;5.55;;
43150;SDS011;28755;51.478;5.702;2023-07-31T04:51:56;20.35;;;6.47;;
43150;SDS011;28755;51.478;5.702;2023-07-31T04:54:22;14.10;;;5.78;;
43150;SDS011;28755;51.478;5.702;2023-07-31T04:56:47;15.63;;;5.82;;
43150;SDS011;28755;51.478;5.702;2023-07-31T04:59:13;26.02;;;6.13;;
43150;SDS011;28755;51.478;5.702;2023-07-31T05:01:38;16.20;;;6.18;;
43150;SDS011;28755;51.478;5.702;2023-07-31T05:04:04;17.80;;;6.25;;
43150;SDS011;28755;51.478;5.702;2023-07-31T05:06:29;23.50;;;6.15;;
43150;SDS011;28755;51.478;5.702;2023-07-31T05:08:55;15.95;;;5.57;;
43150;SDS011;28755;51.478;5.702;2023-07-31T05:11:20;18.05;;;6.45;;
43150;SDS011;28755;51.478;5.702;2023-07-31T05:13:46;15.93;;;6.25;;
43150;SDS011;28755;51.478;5.702;2023-07-31T05:16:11;14.40;;;5.80;;
43150;SDS011;28755;51.478;5.702;2023-07-31T05:18:37;13.48;;;5.60;;
43150;SDS011;28755;51.478;5.702;2023-07-31T05:21:02;18.60;;;6.65;;
43150;SDS011;28755;51.478;5.702;2023-07-31T05:23:28;17.92;;;6.38;;
43150;SDS011;28755;51.478;5.702;2023-07-31T05:25:54;13.52;;;5.68;;
43150;SDS011;28755;51.478;5.702;2023-07-31T05:28:21;14.68;;;5.47;;
43150;SDS011;28755;51.478;5.702;2023-07-31T05:30:46;11.55;;;4.72;;
43150;SDS011;28755;51.478;5.702;2023-07-31T05:33:12;11.68;;;4.80;;
43150;SDS011;28755;51.478;5.702;2023-07-31T05:35:37;15.30;;;5.28;;
43150;SDS011;28755;51.478;5.702;2023-07-31T05:38:03;14.93;;;4.95;;
43150;SDS011;28755;51.478;5.702;2023-07-31T05:40:31;13.07;;;4.43;;
43150;SDS011;28755;51.478;5.702;2023-07-31T05:42:57;12.43;;;4.55;;
43150;SDS011;28755;51.478;5.702;2023-07-31T05:45:23;12.27;;;4.65;;
43150;SDS011;28755;51.478;5.702;2023-07-31T05:47:50;10.63;;;5.07;;
43150;SDS011;28755;51.478;5.702;2023-07-31T05:50:15;9.07;;;5.10;;
43150;SDS011;28755;51.478;5.702;2023-07-31T05:52:41;9.73;;;5.18;;
43150;SDS011;28755;51.478;5.702;2023-07-31T05:55:07;12.43;;;4.88;;
43150;SDS011;28755;51.478;5.702;2023-07-31T05:57:33;11.20;;;4.90;;
43150;SDS011;28755;51.478;5.702;2023-07-31T05:59:58;14.07;;;5.78;;
43150;SDS011;28755;51.478;5.702;2023-07-31T06:02:24;11.77;;;6.68;;
43150;SDS011;28755;51.478;5.702;2023-07-31T06:04:50;11.82;;;6.15;;
43150;SDS011;28755;51.478;5.702;2023-07-31T06:07:15;11.98;;;5.75;;
43150;SDS011;28755;51.478;5.702;2023-07-31T06:09:41;12.30;;;6.07;;
43150;SDS011;28755;51.478;5.702;2023-07-31T06:12:06;11.70;;;6.00;;
43150;SDS011;28755;51.478;5.702;2023-07-31T06:14:32;10.85;;;6.03;;
43150;SDS011;28755;51.478;5.702;2023-07-31T06:16:57;12.63;;;6.10;;
43150;SDS011;28755;51.478;5.702;2023-07-31T06:19:23;10.35;;;5.85;;
43150;SDS011;28755;51.478;5.702;2023-07-31T06:21:48;12.48;;;6.47;;
43150;SDS011;28755;51.478;5.702;2023-07-31T06:24:14;9.65;;;5.82;;
43150;SDS011;28755;51.478;5.702;2023-07-31T06:26:44;12.00;;;6.85;;
43150;SDS011;28755;51.478;5.702;2023-07-31T06:29:09;11.38;;;6.25;;
43150;SDS011;28755;51.478;5.702;2023-07-31T06:31:35;14.70;;;7.30;;
43150;SDS011;28755;51.478;5.702;2023-07-31T06:34:00;14.57;;;6.38;;
43150;SDS011;28755;51.478;5.702;2023-07-31T06:36:26;11.80;;;6.30;;
43150;SDS011;28755;51.478;5.702;2023-07-31T06:38:51;14.88;;;7.20;;
43150;SDS011;28755;51.478;5.702;2023-07-31T06:41:17;12.80;;;7.07;;
43150;SDS011;28755;51.478;5.702;2023-07-31T06:43:42;13.52;;;6.80;;
43150;SDS011;28755;51.478;5.702;2023-07-31T06:46:08;12.90;;;7.05;;
43150;SDS011;28755;51.478;5.702;2023-07-31T06:48:34;12.45;;;6.05;;
43150;SDS011;28755;51.478;5.702;2023-07-31T06:51:01;8.57;;;5.38;;
43150;SDS011;28755;51.478;5.702;2023-07-31T06:53:27;9.43;;;5.57;;
43150;SDS011;28755;51.478;5.702;2023-07-31T06:55:53;10.88;;;5.70;;
43150;SDS011;28755;51.478;5.702;2023-07-31T06:58:19;11.75;;;5.75;;
43150;SDS011;28755;51.478;5.702;2023-07-31T07:00:45;11.75;;;6.03;;
43150;SDS011;28755;51.478;5.702;2023-07-31T07:03:10;13.15;;;6.05;;
43150;SDS011;28755;51.478;5.702;2023-07-31T07:05:36;10.88;;;5.78;;
43150;SDS011;28755;51.478;5.702;2023-07-31T07:08:01;9.65;;;5.30;;
43150;SDS011;28755;51.478;5.702;2023-07-31T07:10:27;9.60;;;5.72;;
43150;SDS011;28755;51.478;5.702;2023-07-31T07:12:53;9.52;;;5.25;;
43150;SDS011;28755;51.478;5.702;2023-07-31T07:15:20;10.77;;;5.25;;
43150;SDS011;28755;51.478;5.702;2023-07-31T07:17:45;12.15;;;5.97;;
43150;SDS011;28755;51.478;5.702;2023-07-31T07:20:12;9.13;;;5.40;;
43150;SDS011;28755;51.478;5.702;2023-07-31T07:22:37;11.52;;;5.25;;
43150;SDS011;28755;51.478;5.702;2023-07-31T07:25:03;10.05;;;5.63;;
43150;SDS011;28755;51.478;5.702;2023-07-31T07:27:32;10.05;;;6.03;;
43150;SDS011;28755;51.478;5.702;2023-07-31T07:29:58;11.32;;;5.95;;
43150;SDS011;28755;51.478;5.702;2023-07-31T07:32:23;9.50;;;5.30;;
43150;SDS011;28755;51.478;5.702;2023-07-31T07:34:49;9.40;;;5.13;;
43150;SDS011;28755;51.478;5.702;2023-07-31T07:37:14;9.82;;;5.10;;
43150;SDS011;28755;51.478;5.702;2023-07-31T07:39:40;10.30;;;5.25;;
43150;SDS011;28755;51.478;5.702;2023-07-31T07:42:06;7.72;;;4.60;;
43150;SDS011;28755;51.478;5.702;2023-07-31T07:44:31;7.95;;;4.82;;
43150;SDS011;28755;51.478;5.702;2023-07-31T07:46:57;7.97;;;5.20;;
43150;SDS011;28755;51.478;5.702;2023-07-31T07:49:23;7.40;;;5.10;;
43150;SDS011;28755;51.478;5.702;2023-07-31T07:51:48;7.40;;;4.55;;
43150;SDS011;28755;51.478;5.702;2023-07-31T07:54:14;10.70;;;4.88;;
43150;SDS011;28755;51.478;5.702;2023-07-31T07:56:42;7.38;;;4.80;;
43150;SDS011;28755;51.478;5.702;2023-07-31T07:59:07;7.85;;;5.10;;
43150;SDS011;28755;51.478;5.702;2023-07-31T08:01:33;7.65;;;4.70;;
43150;SDS011;28755;51.478;5.702;2023-07-31T08:03:59;13.70;;;5.63;;
43150;SDS011;28755;51.478;5.702;2023-07-31T08:06:25;10.50;;;5.13;;
43150;SDS011;28755;51.478;5.702;2023-07-31T08:08:50;7.68;;;5.38;;
43150;SDS011;28755;51.478;5.702;2023-07-31T08:11:16;10.80;;;5.32;;
43150;SDS011;28755;51.478;5.702;2023-07-31T08:13:41;8.23;;;5.53;;
43150;SDS011;28755;51.478;5.702;2023-07-31T08:16:16;11.90;;;6.45;;
43150;SDS011;28755;51.478;5.702;2023-07-31T08:22:03;14.05;;;5.97;;
43150;SDS011;28755;51.478;5.702;2023-07-31T08:24:29;15.77;;;6.40;;
43150;SDS011;28755;51.478;5.702;2023-07-31T08:26:54;12.20;;;5.82;;
43150;SDS011;28755;51.478;5.702;2023-07-31T08:29:20;15.25;;;7.03;;
43150;SDS011;28755;51.478;5.702;2023-07-31T08:31:45;11.52;;;6.32;;
43150;SDS011;28755;51.478;5.702;2023-07-31T08:34:11;10.60;;;6.10;;
43150;SDS011;28755;51.478;5.702;2023-07-31T08:36:36;9.55;;;6.10;;
43150;SDS011;28755;51.478;5.702;2023-07-31T08:39:02;11.63;;;5.85;;
43150;SDS011;28755;51.478;5.702;2023-07-31T08:41:28;13.40;;;5.95;;
43150;SDS011;28755;51.478;5.702;2023-07-31T08:43:54;10.70;;;6.88;;
43150;SDS011;28755;51.478;5.702;2023-07-31T08:46:21;10.20;;;5.80;;
43150;SDS011;28755;51.478;5.702;2023-07-31T08:48:47;12.10;;;6.10;;
43150;SDS011;28755;51.478;5.702;2023-07-31T08:51:14;13.80;;;6.53;;
43150;SDS011;28755;51.478;5.702;2023-07-31T08:53:40;9.75;;;5.82;;
43150;SDS011;28755;51.478;5.702;2023-07-31T08:56:05;6.07;;;5.13;;
43150;SDS011;28755;51.478;5.702;2023-07-31T08:58:32;10.30;;;5.40;;
43150;SDS011;28755;51.478;5.702;2023-07-31T09:00:58;9.88;;;5.55;;
43150;SDS011;28755;51.478;5.702;2023-07-31T09:03:27;8.43;;;5.50;;
43150;SDS011;28755;51.478;5.702;2023-07-31T09:05:56;12.55;;;5.93;;
43150;SDS011;28755;51.478;5.702;2023-07-31T09:08:22;10.75;;;5.57;;
43150;SDS011;28755;51.478;5.702;2023-07-31T09:10:49;11.70;;;5.68;;
43150;SDS011;28755;51.478;5.702;2023-07-31T09:13:15;14.98;;;6.22;;
43150;SDS011;28755;51.478;5.702;2023-07-31T09:15:42;11.05;;;6.22;;
43150;SDS011;28755;51.478;5.702;2023-07-31T09:18:09;12.18;;;6.43;;
43150;SDS011;28755;51.478;5.702;2023-07-31T09:20:35;12.02;;;5.95;;
43150;SDS011;28755;51.478;5.702;2023-07-31T09:23:20;9.88;;;5.78;;
43150;SDS011;28755;51.478;5.702;2023-07-31T09:25:46;9.07;;;5.88;;
43150;SDS011;28755;51.478;5.702;2023-07-31T09:28:12;9.18;;;5.65;;
43150;SDS011;28755;51.478;5.702;2023-07-31T09:30:45;12.07;;;5.82;;
43150;SDS011;28755;51.478;5.702;2023-07-31T09:33:15;13.25;;;5.60;;
43150;SDS011;28755;51.478;5.702;2023-07-31T09:35:41;14.05;;;5.80;;
43150;SDS011;28755;51.478;5.702;2023-07-31T09:38:11;12.00;;;6.00;;
43150;SDS011;28755;51.478;5.702;2023-07-31T09:40:41;15.23;;;5.72;;
43150;SDS011;28755;51.478;5.702;2023-07-31T09:43:11;9.82;;;5.65;;
43150;SDS011;28755;51.478;5.702;2023-07-31T09:45:47;12.32;;;6.03;;
43150;SDS011;28755;51.478;5.702;2023-07-31T09:48:14;15.77;;;5.00;;
43150;SDS011;28755;51.478;5.702;2023-07-31T09:50:47;17.55;;;5.95;;
43150;SDS011;28755;51.478;5.702;2023-07-31T09:53:14;10.98;;;5.38;;
43150;SDS011;28755;51.478;5.702;2023-07-31T09:55:40;12.63;;;5.45;;
43150;SDS011;28755;51.478;5.702;2023-07-31T09:58:11;15.43;;;5.75;;
43150;SDS011;28755;51.478;5.702;2023-07-31T10:00:37;10.20;;;5.18;;
43150;SDS011;28755;51.478;5.702;2023-07-31T10:03:04;9.55;;;4.80;;
43150;SDS011;28755;51.478;5.702;2023-07-31T10:08:00;15.43;;;6.28;;
43150;SDS011;28755;51.478;5.702;2023-07-31T10:10:26;13.07;;;5.05;;
43150;SDS011;28755;51.478;5.702;2023-07-31T10:12:53;9.52;;;4.82;;
43150;SDS011;28755;51.478;5.702;2023-07-31T10:15:20;11.00;;;4.55;;
43150;SDS011;28755;51.478;5.702;2023-07-31T10:17:47;9.50;;;4.93;;
43150;SDS011;28755;51.478;5.702;2023-07-31T10:20:14;10.77;;;5.00;;
43150;SDS011;28755;51.478;5.702;2023-07-31T10:22:41;8.95;;;4.50;;
43150;SDS011;28755;51.478;5.702;2023-07-31T10:25:08;8.23;;;4.80;;
43150;SDS011;28755;51.478;5.702;2023-07-31T10:27:38;9.88;;;4.57;;
43150;SDS011;28755;51.478;5.702;2023-07-31T10:30:05;9.50;;;4.70;;
43150;SDS011;28755;51.478;5.702;2023-07-31T10:32:33;8.73;;;4.30;;
43150;SDS011;28755;51.478;5.702;2023-07-31T10:35:00;8.23;;;4.30;;
43150;SDS011;28755;51.478;5.702;2023-07-31T10:37:29;8.48;;;4.22;;
43150;SDS011;28755;51.478;5.702;2023-07-31T10:40:02;9.30;;;4.28;;
43150;SDS011;28755;51.478;5.702;2023-07-31T10:42:38;7.88;;;3.85;;
43150;SDS011;28755;51.478;5.702;2023-07-31T10:45:37;6.93;;;4.05;;
43150;SDS011;28755;51.478;5.702;2023-07-31T10:48:05;8.98;;;4.20;;
43150;SDS011;28755;51.478;5.702;2023-07-31T10:50:40;8.32;;;4.15;;
43150;SDS011;28755;51.478;5.702;2023-07-31T10:55:50;9.32;;;4.15;;
43150;SDS011;28755;51.478;5.702;2023-07-31T10:58:20;9.60;;;4.05;;
43150;SDS011;28755;51.478;5.702;2023-07-31T11:00:46;7.47;;;3.80;;
43150;SDS011;28755;51.478;5.702;2023-07-31T11:03:18;7.88;;;3.88;;
43150;SDS011;28755;51.478;5.702;2023-07-31T11:08:34;6.95;;;3.67;;
43150;SDS011;28755;51.478;5.702;2023-07-31T11:11:07;7.45;;;3.85;;
43150;SDS011;28755;51.478;5.702;2023-07-31T11:13:39;6.97;;;3.78;;
43150;SDS011;28755;51.478;5.702;2023-07-31T11:16:06;10.30;;;4.20;;
43150;SDS011;28755;51.478;5.702;2023-07-31T11:18:32;5.88;;;3.50;;
43150;SDS011;28755;51.478;5.702;2023-07-31T11:20:58;6.82;;;3.35;;
43150;SDS011;28755;51.478;5.702;2023-07-31T11:23:23;9.15;;;3.38;;
43150;SDS011;28755;51.478;5.702;2023-07-31T11:25:50;6.38;;;3.45;;
43150;SDS011;28755;51.478;5.702;2023-07-31T11:28:16;8.10;;;3.42;;
43150;SDS011;28755;51.478;5.702;2023-07-31T11:30:43;7.80;;;3.50;;
43150;SDS011;28755;51.478;5.702;2023-07-31T11:33:10;7.82;;;3.72;;
43150;SDS011;28755;51.478;5.702;2023-07-31T11:35:41;7.60;;;3.30;;
43150;SDS011;28755;51.478;5.702;2023-07-31T11:38:32;6.18;;;3.45;;
43150;SDS011;28755;51.478;5.702;2023-07-31T11:41:02;6.93;;;3.45;;
43150;SDS011;28755;51.478;5.702;2023-07-31T11:43:32;7.38;;;3.80;;
43150;SDS011;28755;51.478;5.702;2023-07-31T11:46:00;8.38;;;3.00;;
43150;SDS011;28755;51.478;5.702;2023-07-31T11:48:29;9.93;;;4.18;;
43150;SDS011;28755;51.478;5.702;2023-07-31T11:50:59;6.30;;;3.60;;
43150;SDS011;28755;51.478;5.702;2023-07-31T11:56:13;9.30;;;3.80;;
43150;SDS011;28755;51.478;5.702;2023-07-31T11:58:41;7.72;;;3.10;;
43150;SDS011;28755;51.478;5.702;2023-07-31T12:01:10;7.55;;;3.55;;
43150;SDS011;28755;51.478;5.702;2023-07-31T12:03:36;6.70;;;3.45;;
43150;SDS011;28755;51.478;5.702;2023-07-31T12:06:03;5.57;;;3.60;;
43150;SDS011;28755;51.478;5.702;2023-07-31T12:08:28;9.38;;;3.50;;
43150;SDS011;28755;51.478;5.702;2023-07-31T12:10:54;5.47;;;3.35;;
43150;SDS011;28755;51.478;5.702;2023-07-31T12:13:28;6.60;;;3.42;;
43150;SDS011;28755;51.478;5.702;2023-07-31T12:15:56;6.13;;;3.50;;
43150;SDS011;28755;51.478;5.702;2023-07-31T12:18:24;8.82;;;3.70;;
43150;SDS011;28755;51.478;5.702;2023-07-31T12:20:55;8.55;;;3.70;;
43150;SDS011;28755;51.478;5.702;2023-07-31T12:23:28;6.25;;;3.70;;
43150;SDS011;28755;51.478;5.702;2023-07-31T12:26:13;6.63;;;3.80;;
43150;SDS011;28755;51.478;5.702;2023-07-31T12:28:44;7.18;;;3.40;;
43150;SDS011;28755;51.478;5.702;2023-07-31T12:31:11;5.43;;;3.75;;
43150;SDS011;28755;51.478;5.702;2023-07-31T12:33:40;8.77;;;3.63;;
43150;SDS011;28755;51.478;5.702;2023-07-31T12:36:07;7.60;;;3.42;;
43150;SDS011;28755;51.478;5.702;2023-07-31T12:38:34;6.90;;;4.30;;
43150;SDS011;28755;51.478;5.702;2023-07-31T12:41:00;8.65;;;4.32;;
43150;SDS011;28755;51.478;5.702;2023-07-31T12:43:26;9.55;;;5.00;;
43150;SDS011;28755;51.478;5.702;2023-07-31T12:45:51;8.93;;;4.40;;
43150;SDS011;28755;51.478;5.702;2023-07-31T12:48:18;6.72;;;4.70;;
43150;SDS011;28755;51.478;5.702;2023-07-31T12:50:44;10.38;;;5.07;;
43150;SDS011;28755;51.478;5.702;2023-07-31T12:53:09;8.25;;;4.82;;
43150;SDS011;28755;51.478;5.702;2023-07-31T12:55:35;10.00;;;5.50;;
43150;SDS011;28755;51.478;5.702;2023-07-31T12:58:01;12.98;;;5.30;;
43150;SDS011;28755;51.478;5.702;2023-07-31T13:00:27;9.07;;;4.93;;
43150;SDS011;28755;51.478;5.702;2023-07-31T13:02:53;11.35;;;4.72;;
43150;SDS011;28755;51.478;5.702;2023-07-31T13:05:19;12.48;;;4.95;;
43150;SDS011;28755;51.478;5.702;2023-07-31T13:07:47;12.35;;;5.00;;
43150;SDS011;28755;51.478;5.702;2023-07-31T13:10:13;9.00;;;5.00;;
43150;SDS011;28755;51.478;5.702;2023-07-31T13:12:39;9.48;;;4.78;;
43150;SDS011;28755;51.478;5.702;2023-07-31T13:15:04;11.10;;;5.00;;
43150;SDS011;28755;51.478;5.702;2023-07-31T13:17:31;9.90;;;4.60;;
43150;SDS011;28755;51.478;5.702;2023-07-31T13:19:57;11.60;;;4.60;;
43150;SDS011;28755;51.478;5.702;2023-07-31T13:22:22;10.10;;;4.43;;
43150;SDS011;28755;51.478;5.702;2023-07-31T13:24:48;11.38;;;5.43;;
43150;SDS011;28755;51.478;5.702;2023-07-31T13:27:14;12.98;;;5.55;;
43150;SDS011;28755;51.478;5.702;2023-07-31T13:29:44;10.00;;;4.63;;
43150;SDS011;28755;51.478;5.702;2023-07-31T13:32:10;13.65;;;4.80;;
43150;SDS011;28755;51.478;5.702;2023-07-31T13:34:36;11.73;;;5.07;;
43150;SDS011;28755;51.478;5.702;2023-07-31T13:37:01;12.57;;;5.22;;
43150;SDS011;28755;51.478;5.702;2023-07-31T13:39:27;10.88;;;5.22;;
43150;SDS011;28755;51.478;5.702;2023-07-31T13:41:53;13.05;;;5.15;;
43150;SDS011;28755;51.478;5.702;2023-07-31T13:44:18;19.30;;;5.82;;
43150;SDS011;28755;51.478;5.702;2023-07-31T13:46:44;13.23;;;5.00;;
43150;SDS011;28755;51.478;5.702;2023-07-31T13:49:09;10.63;;;5.10;;
43150;SDS011;28755;51.478;5.702;2023-07-31T13:51:35;11.13;;;5.35;;
43150;SDS011;28755;51.478;5.702;2023-07-31T13:54:01;12.95;;;5.45;;
43150;SDS011;28755;51.478;5.702;2023-07-31T13:56:26;12.23;;;5.53;;
43150;SDS011;28755;51.478;5.702;2023-07-31T13:58:52;10.68;;;4.82;;
43150;SDS011;28755;51.478;5.702;2023-07-31T14:01:17;9.52;;;5.55;;
43150;SDS011;28755;51.478;5.702;2023-07-31T14:03:43;10.25;;;5.63;;
43150;SDS011;28755;51.478;5.702;2023-07-31T14:06:08;14.07;;;5.40;;
43150;SDS011;28755;51.478;5.702;2023-07-31T14:08:34;11.38;;;6.15;;
43150;SDS011;28755;51.478;5.702;2023-07-31T14:11:00;11.85;;;5.78;;
43150;SDS011;28755;51.478;5.702;2023-07-31T14:13:25;12.13;;;6.20;;
43150;SDS011;28755;51.478;5.702;2023-07-31T14:15:51;12.77;;;6.30;;
43150;SDS011;28755;51.478;5.702;2023-07-31T14:18:17;11.35;;;6.00;;
43150;SDS011;28755;51.478;5.702;2023-07-31T14:20:43;14.57;;;6.78;;
43150;SDS011;28755;51.478;5.702;2023-07-31T14:23:08;14.38;;;8.90;;
43150;SDS011;28755;51.478;5.702;2023-07-31T14:25:34;12.52;;;6.72;;
43150;SDS011;28755;51.478;5.702;2023-07-31T14:27:59;11.90;;;7.30;;
43150;SDS011;28755;51.478;5.702;2023-07-31T14:30:25;12.07;;;6.18;;
43150;SDS011;28755;51.478;5.702;2023-07-31T14:32:50;12.38;;;5.90;;
43150;SDS011;28755;51.478;5.702;2023-07-31T14:35:16;12.00;;;5.80;;
43150;SDS011;28755;51.478;5.702;2023-07-31T14:37:42;12.30;;;6.40;;
43150;SDS011;28755;51.478;5.702;2023-07-31T14:40:09;11.65;;;6.25;;
43150;SDS011;28755;51.478;5.702;2023-07-31T14:42:36;14.68;;;6.85;;
43150;SDS011;28755;51.478;5.702;2023-07-31T14:45:03;11.32;;;6.55;;
43150;SDS011;28755;51.478;5.702;2023-07-31T14:47:29;13.98;;;7.03;;
43150;SDS011;28755;51.478;5.702;2023-07-31T14:49:58;15.43;;;7.03;;
43150;SDS011;28755;51.478;5.702;2023-07-31T14:52:24;13.10;;;6.82;;
43150;SDS011;28755;51.478;5.702;2023-07-31T14:54:51;13.75;;;7.20;;
43150;SDS011;28755;51.478;5.702;2023-07-31T14:57:17;13.10;;;6.10;;